Time;durP1;ratioP1;P1;durP2;ratioP2;P2;SDS_P1;SDS_P2;PMS_P1;PMS_P2;Temp;Humidity;BMP_temperature;BMP_pressure;BME280_temperature;BME280_humidity;BME280_pressure;Samples;Min_cycle;Max_cycle;Signal;HPM_P1;HPM_P2
2023/07/24 00:02:19;;;;;;;11.88;6.93;;;;;;;18.06;86.30;93382.78;5072488;28;20048;-72
2023/07/24 00:04:47;;;;;;;12.05;5.93;;;;;;;18.06;86.68;93385.38;5069428;28;20052;-72
2023/07/24 00:07:14;;;;;;;9.23;5.25;;;;;;;18.06;87.42;93379.34;5069459;28;20338;-72
2023/07/24 00:09:40;;;;;;;10.60;5.85;;;;;;;18.01;87.33;93386.06;5068404;28;20099;-72
2023/07/24 00:12:08;;;;;;;10.52;5.65;;;;;;;17.95;87.21;93389.69;5065391;28;20114;-72
2023/07/24 00:14:35;;;;;;;13.38;6.07;;;;;;;17.92;87.36;93382.41;5069367;28;20044;-72
2023/07/24 00:17:01;;;;;;;12.40;6.70;;;;;;;17.92;86.96;93376.41;5068261;28;20498;-72
2023/07/24 00:19:28;;;;;;;12.02;6.18;;;;;;;17.88;87.09;93373.53;5069024;28;20098;-72
2023/07/24 00:21:56;;;;;;;10.98;5.53;;;;;;;17.84;87.28;93373.25;5068787;28;20493;-72
2023/07/24 00:24:23;;;;;;;10.30;6.10;;;;;;;17.78;86.26;93379.47;5068277;28;20591;-72
2023/07/24 00:26:50;;;;;;;12.90;6.40;;;;;;;17.72;86.59;93376.03;5066190;28;20057;-73
2023/07/24 00:29:16;;;;;;;13.52;7.25;;;;;;;17.74;87.32;93386.94;5062776;28;20055;-72
2023/07/24 00:31:43;;;;;;;14.43;6.15;;;;;;;17.74;87.64;93386.94;5064767;28;20045;-73
2023/07/24 00:34:12;;;;;;;12.20;5.82;;;;;;;17.67;86.50;93370.03;5060930;28;20102;-73
2023/07/24 00:36:39;;;;;;;12.02;6.57;;;;;;;17.66;87.33;93377.03;5063269;28;20060;-73
2023/07/24 00:39:07;;;;;;;12.52;6.80;;;;;;;17.71;87.16;93368.47;5061590;28;20055;-73
2023/07/24 00:41:34;;;;;;;11.32;6.22;;;;;;;17.71;87.60;93376.28;5066125;28;20048;-73
2023/07/24 00:44:00;;;;;;;10.85;5.85;;;;;;;17.67;88.28;93376.00;5065562;28;20555;-73
2023/07/24 00:46:31;;;;;;;11.73;6.15;;;;;;;17.67;88.53;93370.81;5059109;28;20037;-73
2023/07/24 00:48:59;;;;;;;12.95;6.45;;;;;;;17.68;89.05;93369.00;5065413;28;20036;-73
2023/07/24 00:51:27;;;;;;;11.25;6.45;;;;;;;17.70;88.78;93372.13;5065587;28;20090;-73
2023/07/24 00:53:55;;;;;;;10.68;5.57;;;;;;;17.62;87.84;93368.97;5065122;28;20122;-73
2023/07/24 00:56:24;;;;;;;11.18;6.20;;;;;;;17.66;88.42;93368.44;5061206;28;20044;-73
2023/07/24 00:58:51;;;;;;;13.23;7.40;;;;;;;17.57;88.64;93349.94;5063865;28;20110;-73
2023/07/24 01:01:18;;;;;;;13.00;7.38;;;;;;;17.63;88.20;93362.72;5064333;28;20044;-73
2023/07/24 01:03:45;;;;;;;12.60;6.78;;;;;;;17.51;88.23;93346.56;5058750;28;20062;-72
2023/07/24 01:06:11;;;;;;;14.07;7.28;;;;;;;17.63;87.41;93356.75;5060315;28;20115;-73
2023/07/24 01:08:38;;;;;;;12.40;6.32;;;;;;;17.71;88.42;93353.69;5065388;28;20502;-73
2023/07/24 01:11:12;;;;;;;11.57;6.03;;;;;;;17.70;88.34;93343.53;5061119;28;20048;-73
2023/07/24 01:13:45;;;;;;;12.15;6.22;;;;;;;17.67;87.04;93326.66;5062815;28;20094;-73
2023/07/24 01:16:15;;;;;;;11.57;6.30;;;;;;;17.75;86.33;93333.97;5062559;28;20114;-75
2023/07/24 01:18:44;;;;;;;14.25;6.97;;;;;;;17.74;85.44;93336.81;5063220;28;20044;-74
2023/07/24 01:21:13;;;;;;;13.02;6.13;;;;;;;17.64;85.78;93345.34;5064525;28;20155;-74
2023/07/24 01:23:56;;;;;;;13.80;7.13;;;;;;;17.65;86.25;93346.09;5062701;28;20040;-74
2023/07/24 01:26:24;;;;;;;15.07;6.97;;;;;;;17.52;86.03;93336.94;5063725;28;20040;-75
2023/07/24 01:28:51;;;;;;;12.88;6.80;;;;;;;17.47;85.48;93340.28;5064517;28;20494;-75
2023/07/24 01:31:18;;;;;;;14.77;7.03;;;;;;;17.45;85.28;93340.53;5062615;28;20055;-75
2023/07/24 01:33:45;;;;;;;14.00;6.97;;;;;;;17.44;84.64;93349.34;5062824;28;20047;-74
2023/07/24 01:36:15;;;;;;;16.80;7.00;;;;;;;17.43;85.04;93354.78;5061329;28;20049;-74
2023/07/24 01:38:42;;;;;;;13.20;6.78;;;;;;;17.39;84.89;93358.94;5060157;28;20043;-74
2023/07/24 01:41:10;;;;;;;14.13;7.05;;;;;;;17.41;85.93;93356.84;5064029;28;20091;-75
2023/07/24 01:43:38;;;;;;;13.48;6.75;;;;;;;17.39;86.20;93358.94;5056957;28;20045;-75
2023/07/24 01:46:04;;;;;;;16.58;7.88;;;;;;;17.29;86.31;93350.03;5065031;28;20040;-75
2023/07/24 01:48:31;;;;;;;12.82;7.15;;;;;;;17.32;85.38;93354.72;5064389;28;20052;-75
2023/07/24 01:50:58;;;;;;;15.43;7.70;;;;;;;17.32;84.81;93353.94;5063167;28;20098;-74
2023/07/24 01:53:24;;;;;;;14.32;6.82;;;;;;;17.31;85.11;93358.34;5065157;28;20094;-74
2023/07/24 01:55:51;;;;;;;13.43;7.38;;;;;;;17.40;86.02;93355.31;5063612;28;20096;-74
2023/07/24 01:58:18;;;;;;;14.20;6.78;;;;;;;17.43;86.07;93345.19;5063087;28;20486;-75
2023/07/24 02:00:46;;;;;;;13.85;6.88;;;;;;;17.47;86.23;93348.88;5061760;28;20090;-75
2023/07/24 02:03:13;;;;;;;14.57;7.53;;;;;;;17.43;86.65;93354.78;5062975;28;20097;-74
2023/07/24 02:05:39;;;;;;;14.70;7.55;;;;;;;17.44;86.14;93353.75;5064433;28;20037;-73
2023/07/24 02:08:06;;;;;;;14.27;6.68;;;;;;;17.43;86.42;93355.59;5057544;28;20040;-73
2023/07/24 02:10:33;;;;;;;13.95;6.85;;;;;;;17.43;87.03;93347.00;5061959;28;20044;-74
2023/07/24 02:13:00;;;;;;;15.13;7.50;;;;;;;17.40;86.64;93345.69;5059711;28;20125;-75
2023/07/24 02:15:27;;;;;;;15.80;7.00;;;;;;;17.39;87.02;93345.94;5062258;28;20094;-75
2023/07/24 02:17:55;;;;;;;13.32;6.53;;;;;;;17.34;86.94;93344.09;5062463;28;20041;-74
2023/07/24 02:20:21;;;;;;;13.10;7.10;;;;;;;17.31;87.64;93342.00;5062050;28;20044;-74
2023/07/24 02:22:48;;;;;;;16.60;7.50;;;;;;;17.27;87.77;93343.50;5063328;28;20057;-74
2023/07/24 02:25:15;;;;;;;14.95;6.95;;;;;;;17.20;88.39;93335.94;5061492;28;20053;-74
2023/07/24 02:27:42;;;;;;;15.70;7.65;;;;;;;16.94;87.64;93309.75;5059470;28;20460;-73
2023/07/24 02:30:09;;;;;;;14.35;7.35;;;;;;;17.10;87.60;93339.22;5064543;28;20052;-74
2023/07/24 02:32:36;;;;;;;14.30;7.10;;;;;;;17.04;88.30;93348.75;5058170;28;20041;-74
2023/07/24 02:35:05;;;;;;;13.88;7.47;;;;;;;16.98;88.73;93347.13;5061715;28;20048;-74
2023/07/24 02:37:35;;;;;;;14.98;7.38;;;;;;;17.03;88.59;93333.47;5062149;28;20090;-74
2023/07/24 02:40:02;;;;;;;15.27;7.32;;;;;;;16.96;89.40;93344.00;5063574;28;20044;-73
2023/07/24 02:42:28;;;;;;;13.38;7.53;;;;;;;16.93;90.00;93340.09;5060783;28;20049;-73
2023/07/24 02:44:55;;;;;;;17.52;8.48;;;;;;;16.92;90.55;93341.13;5062241;28;20045;-73
2023/07/24 02:47:22;;;;;;;13.80;6.88;;;;;;;16.90;90.59;93334.63;5061897;28;20063;-73
2023/07/24 02:49:49;;;;;;;16.35;8.23;;;;;;;16.90;90.11;93337.22;5063704;28;20041;-73
2023/07/24 02:52:17;;;;;;;15.43;8.25;;;;;;;16.85;90.68;93331.97;5060464;28;20041;-74
2023/07/24 02:54:43;;;;;;;14.23;7.40;;;;;;;16.91;91.20;93338.78;5061964;28;20048;-75
2023/07/24 02:57:10;;;;;;;16.75;7.57;;;;;;;16.92;90.80;93337.75;5064097;28;20036;-74
2023/07/24 02:59:37;;;;;;;14.98;7.30;;;;;;;16.89;91.21;93339.00;5063759;28;20040;-75
2023/07/24 03:02:04;;;;;;;13.07;7.40;;;;;;;16.82;91.14;93336.59;5061881;28;20490;-74
2023/07/24 03:04:32;;;;;;;19.90;7.82;;;;;;;16.78;90.65;93337.34;5065255;28;20457;-75
2023/07/24 03:06:58;;;;;;;15.32;7.75;;;;;;;16.73;90.72;93335.50;5066027;28;20056;-76
2023/07/24 03:09:26;;;;;;;15.02;7.53;;;;;;;16.73;91.22;93327.72;5063963;28;20090;-76
2023/07/24 03:11:53;;;;;;;15.63;8.57;;;;;;;16.70;92.21;93334.19;5065150;28;20094;-75
2023/07/24 03:14:20;;;;;;;15.32;7.53;;;;;;;16.72;91.81;93336.53;5066071;28;20552;-74
2023/07/24 03:16:46;;;;;;;16.33;7.63;;;;;;;16.73;92.09;93332.09;5065186;28;20090;-75
2023/07/24 03:19:13;;;;;;;18.73;8.20;;;;;;;16.68;91.76;93338.03;5068377;28;20127;-76
2023/07/24 03:21:40;;;;;;;16.05;7.93;;;;;;;16.58;92.19;93317.19;5067989;28;20049;-76
2023/07/24 03:24:09;;;;;;;16.13;8.00;;;;;;;16.58;91.80;93325.75;5067351;28;20106;-75
2023/07/24 03:26:37;;;;;;;17.63;7.82;;;;;;;16.58;91.79;93325.75;5066242;28;20884;-74
2023/07/24 03:29:06;;;;;;;14.52;7.07;;;;;;;16.57;92.02;93334.53;5067716;28;20464;-76
2023/07/24 03:31:33;;;;;;;14.40;8.30;;;;;;;16.51;91.41;93328.53;5066483;28;20044;-74
2023/07/24 03:33:59;;;;;;;14.25;7.10;;;;;;;16.50;91.91;93329.56;5065563;28;20498;-74
2023/07/24 03:36:26;;;;;;;16.05;7.43;;;;;;;16.52;90.88;93335.28;5065383;28;20040;-74
2023/07/24 03:38:53;;;;;;;14.25;7.88;;;;;;;16.20;90.48;93289.31;5067445;28;20053;-74
2023/07/24 03:41:19;;;;;;;13.60;7.13;;;;;;;16.43;90.77;93337.53;5067548;28;20494;-75
2023/07/24 03:43:47;;;;;;;16.00;8.13;;;;;;;16.40;91.50;93338.00;5065448;28;20037;-74
2023/07/24 03:46:14;;;;;;;16.75;7.65;;;;;;;16.30;92.06;93325.72;5063794;28;20044;-75
2023/07/24 03:48:41;;;;;;;13.18;7.95;;;;;;;16.43;92.33;93341.91;5062712;28;20506;-74
2023/07/24 03:51:08;;;;;;;14.95;7.38;;;;;;;16.50;92.45;93333.97;5064400;28;20044;-74
2023/07/24 03:53:35;;;;;;;15.85;7.30;;;;;;;16.52;91.95;93332.69;5064410;28;20142;-74
2023/07/24 03:56:01;;;;;;;14.77;7.07;;;;;;;16.48;92.71;93323.81;5064546;28;20045;-74
2023/07/24 03:58:31;;;;;;;17.65;8.07;;;;;;;16.58;92.28;93328.34;5064424;28;20041;-74
2023/07/24 04:00:59;;;;;;;15.05;7.68;;;;;;;16.68;92.62;93340.63;5064314;28;20124;-74
2023/07/24 04:03:25;;;;;;;13.88;6.82;;;;;;;16.73;92.32;93339.88;5061432;28;20097;-74
2023/07/24 04:05:52;;;;;;;15.10;7.28;;;;;;;16.64;92.00;93332.56;5062734;28;20098;-74
2023/07/24 04:08:19;;;;;;;13.18;7.40;;;;;;;16.75;91.93;93341.22;5062695;28;20044;-75
2023/07/24 04:10:46;;;;;;;15.45;7.13;;;;;;;16.83;91.37;93350.38;5061836;28;20053;-73
2023/07/24 04:13:12;;;;;;;15.43;8.10;;;;;;;16.81;91.14;93337.63;5061179;28;20467;-74
2023/07/24 04:15:39;;;;;;;13.75;7.50;;;;;;;16.87;91.71;93348.84;5064047;28;20044;-73
2023/07/24 04:18:07;;;;;;;15.35;7.45;;;;;;;16.93;92.39;93349.69;5063557;28;20059;-74
2023/07/24 04:20:34;;;;;;;16.67;8.68;;;;;;;16.95;93.38;93345.81;5060303;28;20061;-73
2023/07/24 04:23:00;;;;;;;14.30;8.02;;;;;;;17.06;92.33;93351.13;5061775;28;20086;-75
2023/07/24 04:25:27;;;;;;;13.82;7.53;;;;;;;17.15;92.37;93351.44;5060534;28;20122;-74
2023/07/24 04:27:54;;;;;;;16.08;7.15;;;;;;;17.15;92.40;93335.88;5062103;28;20047;-74
2023/07/24 04:30:21;;;;;;;17.33;8.57;;;;;;;17.32;91.16;93353.94;5063059;28;20444;-74
2023/07/24 04:32:49;;;;;;;15.23;7.75;;;;;;;17.41;91.75;93356.84;5063365;28;20048;-75
2023/07/24 04:35:17;;;;;;;13.60;7.53;;;;;;;17.48;89.94;93358.22;5060378;28;20643;-73
2023/07/24 04:37:44;;;;;;;17.65;8.32;;;;;;;17.50;90.46;93345.00;5064409;28;20040;-73
2023/07/24 04:40:12;;;;;;;13.00;6.75;;;;;;;17.44;90.63;93328.56;5065055;28;20106;-73
2023/07/24 04:42:38;;;;;;;15.90;6.88;;;;;;;17.51;91.98;93338.75;5064697;28;20544;-75
2023/07/24 04:45:06;;;;;;;13.13;6.80;;;;;;;17.55;92.49;93357.97;5061412;28;20041;-74
2023/07/24 04:47:33;;;;;;;12.50;6.55;;;;;;;17.61;91.02;93358.81;5066580;28;20070;-74
2023/07/24 04:49:59;;;;;;;10.60;6.80;;;;;;;17.70;91.83;93352.13;5064315;28;20665;-74
2023/07/24 04:52:28;;;;;;;14.65;7.38;;;;;;;17.82;91.10;93356.34;5059536;28;20094;-75
2023/07/24 04:54:54;;;;;;;17.42;7.78;;;;;;;17.91;91.55;93349.63;5065388;28;20090;-75
2023/07/24 04:57:21;;;;;;;19.02;8.38;;;;;;;18.00;91.16;93345.53;5061484;28;20506;-74
2023/07/24 04:59:50;;;;;;;17.42;7.82;;;;;;;18.05;91.61;93349.19;5064482;28;20044;-75
2023/07/24 05:02:17;;;;;;;14.23;7.45;;;;;;;18.14;89.78;93343.28;5061360;28;20040;-73
2023/07/24 05:04:44;;;;;;;16.35;7.55;;;;;;;18.20;88.96;93333.72;5062484;28;20040;-73
2023/07/24 05:07:10;;;;;;;14.57;7.72;;;;;;;18.35;88.27;93339.97;5061615;28;20044;-72
2023/07/24 05:09:41;;;;;;;18.80;7.63;;;;;;;18.42;89.38;93343.91;5065625;28;20044;-73
2023/07/24 05:12:08;;;;;;;13.77;7.35;;;;;;;18.53;87.50;93349.16;5064620;28;20094;-74
2023/07/24 05:14:35;;;;;;;15.27;6.85;;;;;;;18.66;87.21;93347.91;5064927;28;20041;-72
2023/07/24 05:17:01;;;;;;;12.95;6.72;;;;;;;18.70;88.31;93349.72;5060838;28;20044;-72
2023/07/24 05:19:28;;;;;;;15.10;7.03;;;;;;;18.85;88.22;93357.81;5061378;28;20049;-73
2023/07/24 05:21:55;;;;;;;18.38;7.68;;;;;;;18.90;87.70;93356.03;5064605;28;20048;-73
2023/07/24 05:24:21;;;;;;;18.65;8.93;;;;;;;18.92;87.98;93347.94;5061370;28;20040;-73
2023/07/24 05:26:49;;;;;;;21.90;7.88;;;;;;;18.93;87.60;93342.47;5063229;28;20038;-73
2023/07/24 05:29:16;;;;;;;17.85;7.85;;;;;;;19.08;87.48;93354.75;5062046;28;20049;-74
2023/07/24 05:31:44;;;;;;;24.08;9.13;;;;;;;19.11;88.48;93358.66;5059736;28;20052;-74
2023/07/24 05:34:10;;;;;;;20.25;8.65;;;;;;;19.12;89.69;93354.25;5062456;28;20051;-72
2023/07/24 05:36:37;;;;;;;22.17;9.55;;;;;;;19.26;88.12;93349.31;5062173;28;20099;-73
2023/07/24 05:39:04;;;;;;;17.02;8.48;;;;;;;19.21;87.24;93337.84;5061131;28;20044;-74
2023/07/24 05:41:30;;;;;;;24.17;8.68;;;;;;;19.27;87.99;93353.47;5056569;28;20040;-74
2023/07/24 05:43:59;;;;;;;16.08;8.13;;;;;;;19.35;87.32;93345.16;5061050;28;20561;-74
2023/07/24 05:46:25;;;;;;;20.45;8.60;;;;;;;19.44;87.00;93348.00;5061973;28;20040;-74
2023/07/24 05:48:52;;;;;;;19.45;8.60;;;;;;;19.63;86.31;93350.84;5061073;28;20044;-74
2023/07/24 05:51:19;;;;;;;21.10;8.65;;;;;;;19.79;84.97;93349.00;5061144;28;20506;-74
2023/07/24 05:53:46;;;;;;;26.13;9.60;;;;;;;20.06;83.96;93344.53;5057617;28;20049;-73
2023/07/24 05:56:13;;;;;;;23.95;9.23;;;;;;;20.31;81.66;93346.25;5057459;28;20168;-74
2023/07/24 05:58:39;;;;;;;24.52;8.80;;;;;;;20.54;80.11;93337.03;5061736;28;20102;-74
2023/07/24 06:01:10;;;;;;;21.58;9.20;;;;;;;20.54;77.70;93339.66;5061487;28;20102;-73
2023/07/24 06:03:38;;;;;;;21.02;7.95;;;;;;;20.72;75.76;93337.47;5059180;28;20037;-73
2023/07/24 06:06:05;;;;;;;18.95;8.63;;;;;;;20.82;73.85;93334.00;5062143;28;20119;-74
2023/07/24 06:08:32;;;;;;;15.98;7.13;;;;;;;21.13;71.96;93338.28;5061730;28;20044;-73
2023/07/24 06:10:58;;;;;;;20.10;8.07;;;;;;;21.32;69.14;93341.00;5060694;28;20048;-73
2023/07/24 06:13:25;;;;;;;15.77;8.45;;;;;;;21.68;69.56;93337.31;5064204;28;20045;-72
2023/07/24 06:15:53;;;;;;;20.92;8.13;;;;;;;22.04;68.08;93344.84;5059652;28;20469;-72
2023/07/24 06:18:21;;;;;;;20.92;8.27;;;;;;;22.31;65.85;93340.84;5061285;28;20449;-73
2023/07/24 06:20:47;;;;;;;19.65;7.38;;;;;;;22.45;65.42;93342.81;5063230;28;20102;-72
2023/07/24 06:23:14;;;;;;;15.48;7.93;;;;;;;22.74;66.31;93332.25;5061241;28;20098;-73
2023/07/24 06:25:40;;;;;;;20.05;7.85;;;;;;;23.06;65.61;93335.97;5059558;28;20491;-73
2023/07/24 06:28:07;;;;;;;25.23;8.73;;;;;;;23.43;66.31;93322.34;5057561;28;20109;-73
2023/07/24 06:30:34;;;;;;;24.98;9.57;;;;;;;23.73;64.33;93336.00;5058717;28;20036;-73
2023/07/24 06:33:01;;;;;;;24.15;8.30;;;;;;;23.73;66.31;93321.06;5060999;28;20103;-73
2023/07/24 06:35:29;;;;;;;22.77;8.43;;;;;;;23.87;65.14;93328.16;5060766;28;20458;-73
2023/07/24 06:37:55;;;;;;;21.42;7.72;;;;;;;24.13;63.16;93328.50;5057630;28;20067;-74
2023/07/24 06:40:22;;;;;;;17.33;7.95;;;;;;;24.12;60.34;93334.03;5059957;28;20106;-72
2023/07/24 06:42:49;;;;;;;24.02;10.07;;;;;;;23.74;62.23;93249.19;5064033;28;20083;-72
2023/07/24 06:45:15;;;;;;;22.42;7.90;;;;;;;24.77;61.93;93323.53;5060787;28;20612;-72
2023/07/24 06:47:42;;;;;;;24.90;8.15;;;;;;;25.04;60.17;93333.22;5060720;28;20479;-73
2023/07/24 06:50:09;;;;;;;23.25;7.65;;;;;;;25.07;60.22;93335.25;5059447;28;20106;-72
2023/07/24 06:52:37;;;;;;;25.63;8.63;;;;;;;24.92;59.74;93331.13;5064157;28;20056;-73
2023/07/24 06:55:05;;;;;;;19.13;7.38;;;;;;;25.09;58.35;93340.22;5063054;28;20146;-72
2023/07/24 06:57:31;;;;;;;22.20;8.75;;;;;;;25.18;57.84;93335.78;5062490;28;20048;-72
2023/07/24 06:59:58;;;;;;;26.13;8.50;;;;;;;25.51;56.44;93333.97;5062812;28;20490;-72
2023/07/24 07:02:25;;;;;;;20.23;7.28;;;;;;;25.97;57.02;93330.19;5062252;28;20049;-72
2023/07/24 07:04:51;;;;;;;21.05;8.43;;;;;;;26.04;55.72;93336.88;5060725;28;20048;-75
2023/07/24 07:07:18;;;;;;;23.95;8.02;;;;;;;26.20;56.50;93335.38;5064561;28;20460;-74
2023/07/24 07:09:46;;;;;;;18.45;8.60;;;;;;;26.44;53.76;93336.09;5062305;28;20040;-74
2023/07/24 07:12:13;;;;;;;31.40;8.77;;;;;;;26.78;55.95;93330.13;5064275;28;20048;-74
2023/07/24 07:14:39;;;;;;;17.50;8.20;;;;;;;27.28;54.84;93333.41;5063037;28;20502;-74
2023/07/24 07:17:06;;;;;;;20.08;8.45;;;;;;;27.69;54.18;93330.56;5062983;28;20040;-74
2023/07/24 07:19:33;;;;;;;20.52;7.45;;;;;;;28.11;52.73;93325.44;5064295;28;20036;-74
2023/07/24 07:21:59;;;;;;;18.58;8.20;;;;;;;28.39;51.17;93319.72;5062665;28;20106;-74
2023/07/24 07:24:26;;;;;;;23.10;7.82;;;;;;;28.74;50.88;93320.59;5061099;28;20094;-74
2023/07/24 07:26:54;;;;;;;18.45;7.53;;;;;;;29.04;50.45;93320.53;5062647;28;20041;-75
2023/07/24 07:29:21;;;;;;;16.17;6.25;;;;;;;29.26;50.04;93311.50;5058019;28;20044;-74
2023/07/24 07:31:48;;;;;;;15.48;7.28;;;;;;;29.47;49.31;93314.09;5061014;28;20055;-75
2023/07/24 07:34:14;;;;;;;19.90;7.07;;;;;;;29.64;47.94;93312.41;5058428;28;20090;-74
2023/07/24 07:36:41;;;;;;;14.70;6.97;;;;;;;29.84;48.96;93324.00;5061114;28;20460;-74
2023/07/24 07:39:09;;;;;;;15.65;6.65;;;;;;;30.10;48.12;93319.53;5059466;28;20048;-74
2023/07/24 07:41:36;;;;;;;16.15;7.57;;;;;;;30.42;46.16;93314.44;5060905;28;20037;-75
2023/07/24 07:44:04;;;;;;;16.65;6.80;;;;;;;30.62;47.29;93309.31;5063833;28;20041;-74
2023/07/24 07:46:31;;;;;;;17.05;6.90;;;;;;;30.89;45.23;93326.41;5059250;28;20067;-74
2023/07/24 07:48:57;;;;;;;13.80;6.38;;;;;;;31.18;43.19;93316.59;5061790;28;20045;-75
2023/07/24 07:51:25;;;;;;;12.35;5.38;;;;;;;31.38;44.15;93318.63;5065150;28;20052;-75
2023/07/24 07:53:52;;;;;;;14.98;6.90;;;;;;;31.60;43.15;93315.41;5061037;28;20051;-74
2023/07/24 07:56:19;;;;;;;15.98;6.05;;;;;;;31.82;42.90;93323.13;5066827;28;20094;-74
2023/07/24 07:58:45;;;;;;;10.85;5.07;;;;;;;32.01;40.97;93325.13;5063284;28;20048;-75
2023/07/24 08:01:13;;;;;;;12.45;5.63;;;;;;;31.99;39.73;93322.81;5066929;28;20040;-74
2023/07/24 08:03:40;;;;;;;12.43;5.38;;;;;;;31.93;38.26;93326.84;5066414;28;20539;-75
2023/07/24 08:06:09;;;;;;;11.13;5.80;;;;;;;31.69;39.02;93315.25;5063624;28;20191;-74
2023/07/24 08:08:35;;;;;;;10.13;5.05;;;;;;;32.08;40.90;93322.66;5060297;28;20052;-74
2023/07/24 08:11:05;;;;;;;10.98;5.72;;;;;;;32.25;39.45;93316.22;5066002;28;20045;-75
2023/07/24 08:13:31;;;;;;;9.60;4.75;;;;;;;32.32;39.50;93310.28;5066458;28;20052;-74
2023/07/24 08:15:59;;;;;;;13.30;6.07;;;;;;;32.18;40.02;93302.78;5065507;28;20409;-74
2023/07/24 08:18:27;;;;;;;13.13;4.90;;;;;;;32.35;38.34;93279.59;5066849;28;20076;-74
2023/07/24 08:20:54;;;;;;;13.93;4.65;;;;;;;32.69;37.79;93297.78;5063639;28;20041;-74
2023/07/24 08:23:20;;;;;;;11.38;4.78;;;;;;;32.98;37.86;93285.06;5068474;28;20498;-74
2023/07/24 08:25:54;;;;;;;12.73;4.85;;;;;;;33.25;37.41;93296.63;5068241;28;20048;-74
2023/07/24 08:28:21;;;;;;;10.38;4.82;;;;;;;33.37;36.51;93295.69;5068093;28;20044;-75
2023/07/24 08:30:56;;;;;;;8.90;4.43;;;;;;;33.67;36.70;93289.00;5068225;28;20062;-74
2023/07/24 08:33:23;;;;;;;9.80;4.97;;;;;;;33.82;34.21;93293.44;5067855;28;20048;-74
2023/07/24 08:36:00;;;;;;;17.92;5.32;;;;;;;34.11;35.05;93293.91;5068262;28;20114;-75
2023/07/24 08:38:26;;;;;;;9.05;5.03;;;;;;;34.15;33.38;93287.88;5067864;28;20098;-75
2023/07/24 08:41:01;;;;;;;10.52;5.18;;;;;;;34.12;33.98;93286.69;5067897;28;20044;-75
2023/07/24 08:43:29;;;;;;;10.18;4.60;;;;;;;34.35;33.67;93296.53;5067550;28;20606;-75
2023/07/24 08:45:56;;;;;;;9.80;5.32;;;;;;;34.27;34.13;93292.22;5066200;28;20090;-75
2023/07/24 08:48:24;;;;;;;9.45;5.10;;;;;;;34.32;33.55;93283.91;5067118;28;20873;-75
2023/07/24 08:50:52;;;;;;;9.35;4.97;;;;;;;34.37;32.40;93292.38;5067853;28;20515;-75
2023/07/24 08:53:22;;;;;;;10.15;4.68;;;;;;;34.47;32.09;93293.66;5067666;28;20056;-75
2023/07/24 08:55:49;;;;;;;11.65;4.85;;;;;;;34.61;33.28;93268.34;5067646;28;20094;-75
2023/07/24 08:58:16;;;;;;;9.73;4.13;;;;;;;34.75;33.71;93289.84;5067943;28;20498;-75
2023/07/24 09:00:43;;;;;;;10.93;5.22;;;;;;;34.95;33.77;93289.69;5066687;28;20044;-74
2023/07/24 09:03:09;;;;;;;9.52;5.15;;;;;;;34.91;33.99;93284.31;5067405;28;20055;-75
2023/07/24 09:05:36;;;;;;;12.45;4.75;;;;;;;34.98;34.49;93282.88;5067466;28;20467;-75
2023/07/24 09:08:03;;;;;;;10.43;5.00;;;;;;;35.02;32.64;93278.31;5067409;28;20098;-75
2023/07/24 09:10:31;;;;;;;8.23;4.32;;;;;;;34.51;33.40;93283.81;5067435;28;20494;-75
2023/07/24 09:12:58;;;;;;;13.57;6.10;;;;;;;35.06;34.90;93287.16;5066811;28;20055;-75
2023/07/24 09:15:25;;;;;;;9.98;4.55;;;;;;;35.23;33.28;93277.84;5067604;28;20047;-75
2023/07/24 09:17:53;;;;;;;9.43;4.80;;;;;;;35.51;33.40;93284.59;5066504;28;20056;-75
2023/07/24 09:20:21;;;;;;;10.10;5.18;;;;;;;35.63;32.63;93274.78;5067225;28;20472;-75
2023/07/24 09:22:50;;;;;;;7.55;3.78;;;;;;;35.79;33.27;93269.97;5067617;28;21305;-75
2023/07/24 09:25:17;;;;;;;7.88;4.28;;;;;;;35.87;31.89;93268.13;5067342;28;20056;-75
2023/07/24 09:27:45;;;;;;;8.27;4.13;;;;;;;35.50;32.27;93258.25;5066967;28;20090;-75
2023/07/24 09:30:16;;;;;;;12.23;4.22;;;;;;;35.80;32.96;93263.47;5067209;28;20093;-75
2023/07/24 09:32:43;;;;;;;10.30;4.75;;;;;;;35.93;32.14;93255.16;5064109;28;20051;-75
2023/07/24 09:35:18;;;;;;;7.82;4.18;;;;;;;36.07;33.12;93252.59;5066782;28;20186;-75
2023/07/24 09:37:45;;;;;;;10.23;4.78;;;;;;;36.33;33.04;93252.78;5065529;28;20488;-75
2023/07/24 09:40:13;;;;;;;8.52;4.10;;;;;;;35.85;32.56;93246.31;5067373;28;20052;-75
2023/07/24 09:42:40;;;;;;;8.30;3.92;;;;;;;35.09;34.00;93242.94;5063915;28;20102;-75
2023/07/24 09:45:10;;;;;;;11.70;5.28;;;;;;;35.23;32.86;93245.00;5066255;28;20090;-75
2023/07/24 09:47:37;;;;;;;13.18;4.97;;;;;;;35.24;33.30;93247.31;5066673;28;20098;-75
2023/07/24 09:50:04;;;;;;;8.15;4.20;;;;;;;35.64;33.80;93249.59;5066844;28;20106;-75
2023/07/24 09:52:32;;;;;;;10.77;4.78;;;;;;;35.88;33.73;93242.94;5066585;28;20048;-75
2023/07/24 09:55:06;;;;;;;8.27;3.92;;;;;;;35.96;34.24;93243.75;5066386;28;20053;-75
2023/07/24 09:57:33;;;;;;;10.27;4.22;;;;;;;35.77;33.79;93242.09;5066368;28;20058;-75
2023/07/24 10:00:01;;;;;;;10.20;4.75;;;;;;;36.07;34.50;93236.56;5064861;28;20094;-75
2023/07/24 10:02:31;;;;;;;10.43;4.35;;;;;;;36.34;34.20;93230.25;5066493;28;20269;-74
2023/07/24 10:04:58;;;;;;;9.55;4.40;;;;;;;36.23;34.30;93230.94;5066372;28;20045;-75
2023/07/24 10:07:25;;;;;;;8.00;3.63;;;;;;;35.00;33.79;93229.88;5065304;28;20049;-75
2023/07/24 10:09:53;;;;;;;7.38;3.53;;;;;;;33.90;36.00;93227.72;5062866;28;20076;-74
2023/07/24 10:12:21;;;;;;;8.43;5.28;;;;;;;34.43;35.16;93222.75;5064234;28;20113;-75
2023/07/24 10:14:48;;;;;;;8.23;4.25;;;;;;;34.88;36.43;93206.88;5066126;28;20049;-75
2023/07/24 10:17:15;;;;;;;17.67;3.95;;;;;;;35.47;35.41;93230.34;5065903;28;20102;-75
2023/07/24 10:19:43;;;;;;;8.18;4.22;;;;;;;35.74;34.74;93218.75;5066198;28;20048;-75
2023/07/24 10:22:11;;;;;;;6.75;3.83;;;;;;;35.87;34.71;93220.03;5065270;28;20148;-74
2023/07/24 10:24:39;;;;;;;8.93;3.95;;;;;;;36.07;33.72;93214.41;5065770;28;20083;-74
2023/07/24 10:27:08;;;;;;;7.40;3.10;;;;;;;36.11;34.14;93207.94;5064034;28;20056;-74
2023/07/24 10:29:38;;;;;;;7.65;3.83;;;;;;;36.33;33.92;93216.09;5061368;28;20507;-74
2023/07/24 10:32:17;;;;;;;7.32;3.47;;;;;;;36.40;33.53;93203.88;5066010;28;20102;-74
2023/07/24 10:34:57;;;;;;;8.05;3.80;;;;;;;36.60;33.49;93218.50;5062390;28;20098;-75
2023/07/24 10:37:33;;;;;;;7.45;3.50;;;;;;;36.80;32.97;93212.09;5064320;28;20052;-75
2023/07/24 10:39:59;;;;;;;12.70;5.15;;;;;;;36.84;32.97;93210.97;5059810;28;20460;-75
2023/07/24 10:42:26;;;;;;;8.82;3.50;;;;;;;36.95;32.23;93205.66;5061773;28;20095;-75
2023/07/24 10:45:04;;;;;;;9.07;3.83;;;;;;;36.89;31.99;93191.84;5060391;28;20509;-75
2023/07/24 10:47:34;;;;;;;10.80;3.70;;;;;;;37.10;32.26;93193.09;5061010;28;20090;-75
2023/07/24 10:50:02;;;;;;;7.07;3.60;;;;;;;37.30;32.46;93192.72;5063594;28;20048;-75
2023/07/24 10:52:30;;;;;;;9.10;4.40;;;;;;;37.44;32.96;93191.97;5057663;28;20040;-75
2023/07/24 10:54:57;;;;;;;7.22;3.38;;;;;;;37.54;31.90;93193.88;5063944;28;20094;-73
2023/07/24 10:57:26;;;;;;;9.80;3.92;;;;;;;37.45;31.75;93188.16;5059035;28;20049;-73
2023/07/24 10:59:53;;;;;;;7.90;3.45;;;;;;;37.41;32.00;93190.81;5062347;28;20395;-74
2023/07/24 11:02:20;;;;;;;8.70;3.80;;;;;;;37.45;31.45;93193.50;5062635;28;20131;-74
2023/07/24 11:04:47;;;;;;;13.88;4.15;;;;;;;37.58;31.99;93180.50;5062624;28;20102;-74
2023/07/24 11:07:16;;;;;;;11.80;4.20;;;;;;;37.44;31.51;93183.94;5061528;28;21004;-74
2023/07/24 11:09:43;;;;;;;8.00;4.10;;;;;;;37.36;31.57;93179.72;5064563;28;20118;-74
2023/07/24 11:12:14;;;;;;;8.93;3.90;;;;;;;37.21;31.70;93174.38;5062968;28;20044;-74
2023/07/24 11:14:51;;;;;;;13.95;4.35;;;;;;;37.02;31.96;93168.19;5063249;28;20654;-74
2023/07/24 11:17:18;;;;;;;8.52;4.07;;;;;;;37.01;32.17;93166.66;5065578;28;20051;-74
2023/07/24 11:19:45;;;;;;;9.40;4.05;;;;;;;37.15;32.18;93165.16;5065013;28;20098;-74
2023/07/24 11:22:11;;;;;;;9.88;3.42;;;;;;;37.07;30.88;93160.94;5065123;28;20444;-74
2023/07/24 11:24:48;;;;;;;7.60;4.00;;;;;;;36.03;32.75;93168.94;5066232;28;20052;-74
2023/07/24 11:27:16;;;;;;;8.30;3.45;;;;;;;34.93;34.51;93155.84;5068302;28;20122;-74
2023/07/24 11:29:43;;;;;;;8.07;3.67;;;;;;;34.95;34.72;93152.81;5069074;28;20134;-74